Time;durP1;ratioP1;P1;durP2;ratioP2;P2;SDS_P1;SDS_P2;PMS_P1;PMS_P2;Temp;Humidity;BMP_temperature;BMP_pressure;BME280_temperature;BME280_humidity;BME280_pressure;Samples;Min_cycle;Max_cycle;Signal;HPM_P1;HPM_P2
2024/03/07 00:02:23;;;;;;;5.30;3.42;;;11.10;72.50;;;;;;2338762;54;21033;-67
2024/03/07 00:04:49;;;;;;;5.05;3.37;;;11.10;72.50;;;;;;2317360;54;20956;-66
2024/03/07 00:07:16;;;;;;;5.32;3.10;;;11.10;72.40;;;;;;2340368;54;21030;-65
2024/03/07 00:09:42;;;;;;;6.20;3.60;;;11.10;72.40;;;;;;2339732;54;20941;-66
2024/03/07 00:12:08;;;;;;;7.32;3.97;;;11.10;72.40;;;;;;2585739;53;20945;-66
2024/03/07 00:14:35;;;;;;;5.45;3.22;;;11.10;72.40;;;;;;2339364;54;20933;-65
2024/03/07 00:17:02;;;;;;;5.55;3.40;;;11.20;72.50;;;;;;2585772;53;21748;-65
2024/03/07 00:19:29;;;;;;;7.07;3.97;;;11.20;72.40;;;;;;2584178;53;21499;-66
2024/03/07 00:21:56;;;;;;;5.15;3.33;;;11.10;72.30;;;;;;2583821;53;20979;-65
2024/03/07 00:24:22;;;;;;;5.50;3.47;;;11.20;72.30;;;;;;2585463;53;21486;-66
2024/03/07 00:26:52;;;;;;;6.60;4.12;;;11.10;72.20;;;;;;2339230;54;21052;-66
2024/03/07 00:29:21;;;;;;;6.25;3.95;;;11.10;72.20;;;;;;2585641;53;21418;-66
2024/03/07 00:31:47;;;;;;;5.72;3.62;;;11.10;72.30;;;;;;2338756;54;20929;-66
2024/03/07 00:34:16;;;;;;;7.15;4.50;;;11.10;72.30;;;;;;2316343;54;21011;-67
2024/03/07 00:36:46;;;;;;;6.90;4.03;;;11.10;72.40;;;;;;2339154;54;21829;-66
2024/03/07 00:39:13;;;;;;;6.70;4.40;;;11.10;72.30;;;;;;2585626;53;20936;-66
2024/03/07 00:41:39;;;;;;;6.40;4.22;;;11.10;72.30;;;;;;2339102;54;21102;-65
2024/03/07 00:44:08;;;;;;;8.05;4.32;;;11.10;72.40;;;;;;2340017;54;21024;-66
2024/03/07 00:46:37;;;;;;;6.90;4.82;;;11.10;72.30;;;;;;2584474;53;20941;-66
2024/03/07 00:49:05;;;;;;;5.78;4.03;;;11.10;72.30;;;;;;2338691;54;20981;-66
2024/03/07 00:51:31;;;;;;;6.72;4.07;;;11.20;72.50;;;;;;2585750;53;21033;-66
2024/03/07 00:53:57;;;;;;;6.05;3.53;;;11.10;72.40;;;;;;2339911;54;20957;-66
2024/03/07 00:56:25;;;;;;;6.87;3.70;;;11.10;72.40;;;;;;2571742;53;21010;-66
2024/03/07 00:58:52;;;;;;;6.25;3.50;;;11.10;72.30;;;;;;2323622;54;20960;-67
2024/03/07 01:01:21;;;;;;;7.97;4.40;;;11.10;72.30;;;;;;2340014;54;21792;-66
2024/03/07 01:03:47;;;;;;;7.45;5.03;;;11.10;72.30;;;;;;2339701;54;20953;-66
2024/03/07 01:06:13;;;;;;;9.70;5.40;;;11.10;72.30;;;;;;2340415;54;21328;-66
2024/03/07 01:08:40;;;;;;;8.15;5.70;;;11.10;72.30;;;;;;2560617;53;20994;-67
2024/03/07 01:11:09;;;;;;;7.20;5.00;;;11.10;72.30;;;;;;2579135;53;21177;-66
2024/03/07 01:13:36;;;;;;;6.62;4.35;;;11.10;72.30;;;;;;2339267;54;21000;-67
2024/03/07 01:16:03;;;;;;;7.82;5.40;;;11.10;72.30;;;;;;2585765;53;21773;-66
2024/03/07 01:18:29;;;;;;;7.07;4.78;;;11.10;72.30;;;;;;2585689;53;21004;-66
2024/03/07 01:20:56;;;;;;;8.13;5.50;;;11.10;72.30;;;;;;2339535;54;20992;-66
2024/03/07 01:23:22;;;;;;;7.12;4.53;;;11.10;72.30;;;;;;2339824;54;21556;-66
2024/03/07 01:25:51;;;;;;;6.80;4.45;;;11.10;72.30;;;;;;2339095;54;20960;-67
2024/03/07 01:28:18;;;;;;;8.20;5.32;;;11.10;72.20;;;;;;2585838;53;21409;-65
2024/03/07 01:30:45;;;;;;;8.48;4.75;;;11.10;72.20;;;;;;2339394;54;21024;-67
2024/03/07 01:33:11;;;;;;;7.07;4.40;;;11.10;72.20;;;;;;2582532;53;21348;-66
2024/03/07 01:35:38;;;;;;;6.95;4.43;;;11.10;72.30;;;;;;2339213;54;21253;-66
2024/03/07 01:38:04;;;;;;;6.80;4.65;;;11.10;72.20;;;;;;2339614;54;21077;-67
2024/03/07 01:40:32;;;;;;;7.53;4.65;;;11.10;72.20;;;;;;2585278;53;20981;-66
2024/03/07 01:43:06;;;;;;;8.02;5.12;;;11.10;72.20;;;;;;2340361;54;21324;-65
2024/03/07 01:45:32;;;;;;;6.78;4.43;;;11.10;72.20;;;;;;2339408;54;20965;-66
2024/03/07 01:47:59;;;;;;;7.47;4.72;;;11.10;72.20;;;;;;2585170;53;20973;-66
2024/03/07 01:50:26;;;;;;;8.13;5.10;;;11.10;72.20;;;;;;2339885;54;21051;-65
2024/03/07 01:52:55;;;;;;;8.65;5.55;;;11.10;72.20;;;;;;2327095;54;21337;-65
2024/03/07 01:55:22;;;;;;;8.80;5.00;;;11.10;72.20;;;;;;2560254;53;21245;-66
2024/03/07 01:57:49;;;;;;;7.78;5.00;;;11.10;72.20;;;;;;2338550;54;21178;-67
2024/03/07 02:00:17;;;;;;;8.57;4.70;;;11.00;72.10;;;;;;2339597;54;21561;-65
2024/03/07 02:02:45;;;;;;;8.02;4.78;;;11.10;72.20;;;;;;2584111;53;21240;-66
2024/03/07 02:05:11;;;;;;;7.05;4.65;;;11.10;72.30;;;;;;2339162;54;20980;-65
2024/03/07 02:07:40;;;;;;;8.27;4.80;;;11.10;72.30;;;;;;2339236;54;20940;-66
2024/03/07 02:10:18;;;;;;;6.53;4.15;;;11.00;72.20;;;;;;2584738;53;21047;-66
2024/03/07 02:12:48;;;;;;;7.40;4.35;;;11.10;72.10;;;;;;2339350;54;21029;-66
2024/03/07 02:15:14;;;;;;;7.28;4.32;;;11.00;72.10;;;;;;2584770;53;20953;-66
2024/03/07 02:17:42;;;;;;;7.65;4.37;;;11.00;72.20;;;;;;2585168;53;21708;-66
2024/03/07 02:20:10;;;;;;;6.20;4.07;;;11.00;72.20;;;;;;2340836;54;21060;-66
2024/03/07 02:22:37;;;;;;;6.22;3.83;;;11.00;72.20;;;;;;2339551;54;20977;-66
2024/03/07 02:25:04;;;;;;;6.12;4.03;;;11.00;72.20;;;;;;2338980;54;21173;-65
2024/03/07 02:27:31;;;;;;;9.02;5.85;;;11.00;72.20;;;;;;2584871;53;21075;-66
2024/03/07 02:29:58;;;;;;;9.30;5.75;;;11.00;72.20;;;;;;2339540;54;21221;-66
2024/03/07 02:32:26;;;;;;;8.45;5.37;;;11.00;72.20;;;;;;2339876;54;20984;-66
2024/03/07 02:34:52;;;;;;;8.05;4.95;;;11.00;72.20;;;;;;2317168;55;21050;-65
2024/03/07 02:37:19;;;;;;;8.15;5.18;;;11.00;72.20;;;;;;2553011;53;20953;-66
2024/03/07 02:39:45;;;;;;;10.68;6.40;;;11.00;72.30;;;;;;2581573;53;20984;-65
2024/03/07 02:42:12;;;;;;;7.32;4.82;;;11.00;72.30;;;;;;2339583;54;21201;-66
2024/03/07 02:44:38;;;;;;;10.52;7.12;;;11.00;72.30;;;;;;2339235;54;20953;-66
2024/03/07 02:47:06;;;;;;;12.45;7.75;;;11.00;72.30;;;;;;2339800;54;21044;-65
2024/03/07 02:49:35;;;;;;;9.88;7.15;;;11.00;72.30;;;;;;2585808;53;20952;-65
2024/03/07 02:52:01;;;;;;;12.43;7.07;;;11.00;72.30;;;;;;2339388;54;21482;-66
2024/03/07 02:54:28;;;;;;;9.63;6.50;;;11.00;72.30;;;;;;2339657;54;20956;-65
2024/03/07 02:56:54;;;;;;;11.02;6.72;;;11.00;72.30;;;;;;2585484;53;21810;-66
2024/03/07 02:59:21;;;;;;;10.65;6.57;;;11.00;72.40;;;;;;2339066;54;20968;-66
2024/03/07 03:01:47;;;;;;;12.93;7.57;;;11.00;72.40;;;;;;2585226;53;21244;-67
2024/03/07 03:04:14;;;;;;;14.05;8.73;;;11.00;72.40;;;;;;2339699;54;20989;-65
2024/03/07 03:06:41;;;;;;;12.80;8.07;;;11.00;72.40;;;;;;2339521;54;21669;-65
2024/03/07 03:09:13;;;;;;;10.55;6.95;;;11.00;72.30;;;;;;2339323;54;20948;-66
2024/03/07 03:11:39;;;;;;;13.32;8.57;;;11.00;72.30;;;;;;2339564;54;21442;-66
2024/03/07 03:14:05;;;;;;;11.68;7.62;;;11.00;72.20;;;;;;2339722;54;20945;-65
2024/03/07 03:16:34;;;;;;;12.13;7.60;;;11.00;72.20;;;;;;2339371;54;21489;-66
2024/03/07 03:19:04;;;;;;;10.55;6.50;;;11.00;72.10;;;;;;2338899;54;21331;-66
2024/03/07 03:21:31;;;;;;;10.02;6.80;;;11.00;72.10;;;;;;2339664;54;20964;-66
2024/03/07 03:23:57;;;;;;;13.65;8.52;;;11.00;72.10;;;;;;2338675;54;21019;-66
2024/03/07 03:26:23;;;;;;;12.40;8.07;;;10.90;71.90;;;;;;2328851;54;21289;-65
2024/03/07 03:28:50;;;;;;;14.20;9.20;;;10.90;71.90;;;;;;2327432;54;21340;-65
2024/03/07 03:31:16;;;;;;;17.23;10.40;;;10.90;71.90;;;;;;2339347;54;20925;-66
2024/03/07 03:33:43;;;;;;;13.90;9.48;;;10.90;71.90;;;;;;2585279;53;21031;-64
2024/03/07 03:36:10;;;;;;;18.92;9.18;;;10.90;71.90;;;;;;2340158;54;20985;-66
2024/03/07 03:38:37;;;;;;;14.65;8.98;;;10.90;72.00;;;;;;2340392;54;20988;-67
2024/03/07 03:41:06;;;;;;;12.40;8.18;;;10.90;71.90;;;;;;2316618;54;21107;-66
2024/03/07 03:43:32;;;;;;;16.60;10.73;;;10.80;71.80;;;;;;2340083;54;20968;-66
2024/03/07 03:45:58;;;;;;;16.83;10.50;;;10.80;71.80;;;;;;2585722;53;20985;-65
2024/03/07 03:48:26;;;;;;;15.45;9.07;;;10.80;71.80;;;;;;2339473;54;20965;-66
2024/03/07 03:50:54;;;;;;;16.70;10.70;;;10.80;71.90;;;;;;2330200;54;21018;-65
2024/03/07 03:53:20;;;;;;;14.68;9.57;;;10.80;71.90;;;;;;2327304;54;21620;-66
2024/03/07 03:55:46;;;;;;;12.75;8.20;;;10.80;71.90;;;;;;2585527;53;21422;-66
2024/03/07 03:58:13;;;;;;;13.90;8.45;;;10.80;72.00;;;;;;2338861;54;21001;-65
2024/03/07 04:00:39;;;;;;;14.70;9.70;;;10.80;72.00;;;;;;2339713;54;20968;-66
2024/03/07 04:03:06;;;;;;;15.75;9.73;;;10.80;71.90;;;;;;2339533;54;20957;-65
2024/03/07 04:05:33;;;;;;;16.33;9.95;;;10.70;71.80;;;;;;2339587;54;20974;-66
2024/03/07 04:08:01;;;;;;;15.30;9.35;;;10.70;71.80;;;;;;2328839;54;20986;-65
2024/03/07 04:10:27;;;;;;;15.07;9.27;;;10.70;71.70;;;;;;2328005;54;21380;-66
2024/03/07 04:12:53;;;;;;;14.60;9.50;;;10.70;71.60;;;;;;2339196;54;21314;-66
2024/03/07 04:15:20;;;;;;;16.33;9.93;;;10.70;71.60;;;;;;2340041;54;20968;-66
2024/03/07 04:17:46;;;;;;;16.50;9.80;;;10.70;71.50;;;;;;2584501;53;20963;-66
2024/03/07 04:20:13;;;;;;;14.55;8.93;;;10.60;71.50;;;;;;2339421;54;21416;-66
2024/03/07 04:22:40;;;;;;;15.43;9.82;;;10.60;71.50;;;;;;2584821;53;20953;-66
2024/03/07 04:25:07;;;;;;;15.88;10.07;;;10.60;71.70;;;;;;2339876;54;20949;-65
2024/03/07 04:27:37;;;;;;;17.55;10.73;;;10.60;71.70;;;;;;2339346;54;20960;-66
2024/03/07 04:30:04;;;;;;;20.45;12.20;;;10.60;71.70;;;;;;2585044;53;21024;-65
2024/03/07 04:32:34;;;;;;;16.15;11.27;;;10.50;71.70;;;;;;2339616;54;20976;-65
2024/03/07 04:35:00;;;;;;;15.35;10.02;;;10.50;71.70;;;;;;2340442;54;21015;-66
2024/03/07 04:37:27;;;;;;;16.55;10.13;;;10.50;71.70;;;;;;2339482;54;20949;-65
2024/03/07 04:39:54;;;;;;;19.85;12.30;;;10.50;71.80;;;;;;2339826;54;20949;-65
2024/03/07 04:42:20;;;;;;;19.10;11.10;;;10.50;71.90;;;;;;2281146;55;21499;-66
2024/03/07 04:44:47;;;;;;;16.83;10.93;;;10.50;71.90;;;;;;2307131;54;21079;-66
2024/03/07 04:47:14;;;;;;;15.73;9.60;;;10.50;71.80;;;;;;2307234;54;20943;-66
2024/03/07 04:49:40;;;;;;;14.27;9.13;;;10.50;71.80;;;;;;2321407;54;21001;-66
2024/03/07 04:52:06;;;;;;;18.30;9.98;;;10.50;71.80;;;;;;2334610;54;20940;-66
2024/03/07 04:54:34;;;;;;;17.58;10.00;;;10.40;71.50;;;;;;2578817;53;20965;-66
2024/03/07 04:57:00;;;;;;;14.55;9.25;;;10.40;71.50;;;;;;2306911;54;20953;-65
2024/03/07 04:59:27;;;;;;;14.90;9.15;;;10.40;71.70;;;;;;2333658;54;21052;-65
2024/03/07 05:01:53;;;;;;;16.67;9.95;;;10.40;71.50;;;;;;2543821;53;20994;-66
2024/03/07 05:04:19;;;;;;;18.10;10.82;;;10.40;71.50;;;;;;2577629;53;21000;-66
2024/03/07 05:06:49;;;;;;;15.07;9.93;;;10.40;71.40;;;;;;2334217;54;20984;-65
2024/03/07 05:09:22;;;;;;;14.85;9.25;;;10.30;71.30;;;;;;2334332;54;20961;-65
2024/03/07 05:11:51;;;;;;;14.27;8.68;;;10.30;71.30;;;;;;2335115;54;21364;-66
2024/03/07 05:14:19;;;;;;;14.15;8.55;;;10.30;71.30;;;;;;2333059;54;21036;-66
2024/03/07 05:16:45;;;;;;;13.20;8.30;;;10.30;71.30;;;;;;2333896;54;21915;-65
2024/03/07 05:19:12;;;;;;;11.52;7.05;;;10.20;71.10;;;;;;2334571;54;20992;-66
2024/03/07 05:21:40;;;;;;;15.68;8.57;;;10.20;71.10;;;;;;2334525;54;22097;-66
2024/03/07 05:24:07;;;;;;;15.25;8.95;;;10.20;71.10;;;;;;2333570;54;20957;-66
2024/03/07 05:26:39;;;;;;;14.85;9.45;;;10.20;71.00;;;;;;2334319;54;20960;-66
2024/03/07 05:29:09;;;;;;;13.43;7.67;;;10.10;70.80;;;;;;2334339;54;21357;-66
2024/03/07 05:31:36;;;;;;;12.55;8.13;;;10.10;70.80;;;;;;2334263;54;21320;-65
2024/03/07 05:34:04;;;;;;;14.13;7.55;;;10.00;70.50;;;;;;2333441;54;21013;-64
2024/03/07 05:36:31;;;;;;;13.30;8.35;;;10.00;70.30;;;;;;2334257;54;21481;-66
2024/03/07 05:38:59;;;;;;;15.02;8.73;;;9.90;71.30;;;;;;2578563;53;21288;-65
2024/03/07 05:41:29;;;;;;;13.30;8.73;;;9.90;71.30;;;;;;2334166;54;20981;-65
2024/03/07 05:43:56;;;;;;;14.93;9.63;;;9.80;71.20;;;;;;2334338;54;20925;-66
2024/03/07 05:46:23;;;;;;;16.58;9.98;;;9.80;71.20;;;;;;2334330;54;21024;-65
2024/03/07 05:48:52;;;;;;;16.58;10.30;;;9.70;71.30;;;;;;2334133;54;21087;-66
2024/03/07 05:51:20;;;;;;;21.37;11.98;;;9.70;71.50;;;;;;2334429;54;20989;-65
2024/03/07 05:53:46;;;;;;;16.48;10.68;;;9.70;71.60;;;;;;2334667;54;20957;-65
2024/03/07 05:56:14;;;;;;;18.80;11.00;;;9.60;71.70;;;;;;2334110;54;20965;-66
2024/03/07 05:58:40;;;;;;;18.12;11.30;;;9.60;71.80;;;;;;2333434;54;21428;-65
2024/03/07 06:01:08;;;;;;;23.42;12.57;;;9.60;72.00;;;;;;2333037;54;20980;-64
2024/03/07 06:03:34;;;;;;;18.00;11.27;;;9.50;72.10;;;;;;2333341;54;20972;-65
2024/03/07 06:06:01;;;;;;;19.42;11.52;;;9.50;72.30;;;;;;2333660;54;21318;-66
2024/03/07 06:08:27;;;;;;;20.83;12.48;;;9.50;72.40;;;;;;2334056;54;21441;-66
2024/03/07 06:10:54;;;;;;;17.52;10.43;;;9.50;72.50;;;;;;2334385;54;21672;-64
2024/03/07 06:13:20;;;;;;;16.80;10.10;;;9.50;72.60;;;;;;2579046;53;22150;-65
2024/03/07 06:15:47;;;;;;;14.75;9.07;;;9.50;72.70;;;;;;2334052;54;21739;-66
2024/03/07 06:18:14;;;;;;;14.65;8.63;;;9.50;72.80;;;;;;2335084;54;21016;-66
2024/03/07 06:20:43;;;;;;;16.30;9.43;;;9.50;72.80;;;;;;2334406;54;21454;-65
2024/03/07 06:23:11;;;;;;;14.32;9.02;;;9.50;72.70;;;;;;2578999;53;21700;-65
2024/03/07 06:25:47;;;;;;;16.58;10.30;;;9.50;72.70;;;;;;2579075;53;21509;-65
2024/03/07 06:28:13;;;;;;;16.45;10.13;;;9.50;72.70;;;;;;2334876;54;20945;-65
2024/03/07 06:30:46;;;;;;;15.30;9.23;;;9.50;72.60;;;;;;2335084;54;20941;-66
2024/03/07 06:33:13;;;;;;;16.12;10.23;;;9.50;72.40;;;;;;2578935;53;20972;-66
2024/03/07 06:35:39;;;;;;;19.23;10.88;;;9.40;72.30;;;;;;2334305;54;21280;-66
2024/03/07 06:38:06;;;;;;;17.05;10.27;;;9.40;72.30;;;;;;2578682;53;20997;-66
2024/03/07 06:40:33;;;;;;;17.30;10.20;;;9.40;72.30;;;;;;2334504;54;20960;-65
2024/03/07 06:42:59;;;;;;;17.90;10.18;;;9.40;72.40;;;;;;2334943;54;21324;-66
2024/03/07 06:45:26;;;;;;;17.60;10.20;;;9.40;72.50;;;;;;2324605;54;20998;-66
2024/03/07 06:47:52;;;;;;;21.90;10.13;;;9.40;72.70;;;;;;2317757;54;21402;-65
2024/03/07 06:50:22;;;;;;;20.27;10.82;;;9.40;72.80;;;;;;2579001;53;20929;-66
2024/03/07 06:52:49;;;;;;;18.85;9.90;;;9.40;72.90;;;;;;2579419;53;20993;-65
2024/03/07 06:55:16;;;;;;;16.37;9.45;;;9.40;72.90;;;;;;2334290;54;20984;-64
2024/03/07 06:57:43;;;;;;;19.05;10.52;;;9.40;73.00;;;;;;2334562;54;20989;-65
2024/03/07 07:00:14;;;;;;;20.12;11.38;;;9.40;73.10;;;;;;2333925;54;20957;-66
2024/03/07 07:02:40;;;;;;;18.80;10.48;;;9.40;73.20;;;;;;2579270;53;21016;-65
2024/03/07 07:05:10;;;;;;;18.10;10.32;;;9.40;73.30;;;;;;2333831;54;21767;-65
2024/03/07 07:07:38;;;;;;;17.90;9.95;;;9.40;73.20;;;;;;2578880;53;20973;-66
2024/03/07 07:10:08;;;;;;;18.77;10.43;;;9.40;73.20;;;;;;2578959;53;21419;-65
2024/03/07 07:12:37;;;;;;;18.20;10.15;;;9.50;73.30;;;;;;2333938;54;20981;-65
2024/03/07 07:15:04;;;;;;;17.35;8.93;;;9.50;73.30;;;;;;2334569;54;21470;-65
2024/03/07 07:17:31;;;;;;;20.42;11.38;;;9.50;73.30;;;;;;2334293;54;21252;-66
2024/03/07 07:19:57;;;;;;;18.95;10.43;;;9.50;73.30;;;;;;2334525;54;21344;-66
2024/03/07 07:22:25;;;;;;;17.60;9.23;;;9.50;73.30;;;;;;2579276;53;22209;-66
2024/03/07 07:24:51;;;;;;;18.75;9.85;;;9.50;73.40;;;;;;2334686;54;21458;-65
2024/03/07 07:27:18;;;;;;;18.17;9.75;;;9.60;73.50;;;;;;2334998;54;20979;-66
2024/03/07 07:29:45;;;;;;;19.62;10.10;;;9.60;73.50;;;;;;2334420;54;20945;-65
2024/03/07 07:32:12;;;;;;;21.73;11.07;;;9.60;73.50;;;;;;2333585;54;20973;-65
2024/03/07 07:34:38;;;;;;;22.67;12.10;;;9.60;73.30;;;;;;2333879;54;20937;-66
2024/03/07 07:37:05;;;;;;;20.65;10.98;;;9.60;73.00;;;;;;2334774;54;20984;-65
2024/03/07 07:39:31;;;;;;;21.37;10.60;;;9.60;72.90;;;;;;2334415;54;21761;-66
2024/03/07 07:41:59;;;;;;;23.85;11.48;;;9.60;72.90;;;;;;2535433;53;21107;-65
2024/03/07 07:44:26;;;;;;;19.05;10.30;;;9.60;72.80;;;;;;2311128;55;21204;-66
2024/03/07 07:46:54;;;;;;;21.12;11.32;;;9.60;72.90;;;;;;2579648;53;21024;-65
2024/03/07 07:49:20;;;;;;;20.15;11.18;;;9.60;73.00;;;;;;2334498;54;20976;-66
2024/03/07 07:51:48;;;;;;;21.65;11.23;;;9.60;73.10;;;;;;2335228;54;21013;-66
2024/03/07 07:54:15;;;;;;;20.20;10.35;;;9.60;73.10;;;;;;2334408;54;21016;-66
2024/03/07 07:56:41;;;;;;;19.48;10.73;;;9.60;73.00;;;;;;2334284;54;20957;-65
2024/03/07 07:59:09;;;;;;;19.90;11.05;;;9.70;73.10;;;;;;2313495;54;21094;-65
2024/03/07 08:01:35;;;;;;;23.85;13.43;;;9.70;73.20;;;;;;2312243;54;21894;-66
2024/03/07 08:04:04;;;;;;;21.70;11.55;;;9.70;73.40;;;;;;2579479;53;21009;-66
2024/03/07 08:06:40;;;;;;;20.65;10.90;;;9.70;73.50;;;;;;2579441;53;21040;-65
2024/03/07 08:09:10;;;;;;;19.60;10.65;;;9.70;73.50;;;;;;2333351;54;21292;-65
2024/03/07 08:11:39;;;;;;;23.02;12.40;;;9.80;73.80;;;;;;2334349;54;21005;-66
2024/03/07 08:14:06;;;;;;;21.40;11.48;;;9.80;73.70;;;;;;2333902;54;21005;-66
2024/03/07 08:16:33;;;;;;;27.02;13.45;;;9.80;73.60;;;;;;2334261;54;21817;-66
2024/03/07 08:19:06;;;;;;;27.08;14.68;;;9.80;73.50;;;;;;2334589;54;20949;-65
2024/03/07 08:21:33;;;;;;;24.73;14.30;;;9.80;73.50;;;;;;2307108;55;21076;-66
2024/03/07 08:24:03;;;;;;;25.02;14.20;;;9.80;73.50;;;;;;2541088;53;20961;-66
2024/03/07 08:26:29;;;;;;;29.58;16.12;;;9.90;73.50;;;;;;2334787;54;20925;-65
2024/03/07 08:28:57;;;;;;;28.75;16.25;;;9.90;73.30;;;;;;2334360;54;20977;-66
2024/03/07 08:31:23;;;;;;;33.28;17.40;;;9.90;73.00;;;;;;2333889;54;21040;-66
2024/03/07 08:33:49;;;;;;;30.40;15.77;;;9.90;72.80;;;;;;2333969;54;21004;-66
2024/03/07 08:36:16;;;;;;;32.05;17.95;;;9.90;72.70;;;;;;2333886;54;21020;-65
2024/03/07 08:38:43;;;;;;;29.90;16.65;;;9.90;72.60;;;;;;2334076;54;20961;-65
2024/03/07 08:41:11;;;;;;;29.75;15.55;;;9.80;72.40;;;;;;2578980;53;21016;-65
2024/03/07 08:43:37;;;;;;;27.62;15.05;;;9.80;72.30;;;;;;2308092;54;21943;-65
2024/03/07 08:46:03;;;;;;;25.62;15.38;;;9.80;72.30;;;;;;2307560;54;20956;-66
2024/03/07 08:48:30;;;;;;;24.95;14.38;;;9.80;72.10;;;;;;2307168;54;20936;-66
2024/03/07 08:50:56;;;;;;;25.60;14.48;;;9.80;72.10;;;;;;2306663;54;20963;-65
2024/03/07 08:53:23;;;;;;;22.73;13.60;;;9.80;72.00;;;;;;2304023;54;21003;-66
2024/03/07 08:55:50;;;;;;;25.10;14.82;;;9.70;72.10;;;;;;2307291;54;21022;-65
2024/03/07 08:58:16;;;;;;;29.60;15.98;;;9.70;72.20;;;;;;2307528;54;21035;-65
2024/03/07 09:00:46;;;;;;;25.45;14.95;;;9.70;72.10;;;;;;2305930;54;21567;-66
2024/03/07 09:03:12;;;;;;;25.45;14.20;;;9.70;72.10;;;;;;2303188;55;20954;-66
2024/03/07 09:05:39;;;;;;;23.45;13.80;;;9.70;72.10;;;;;;2305290;54;20954;-65
2024/03/07 09:08:07;;;;;;;29.48;15.82;;;9.70;72.10;;;;;;2305354;54;20955;-66
2024/03/07 09:10:33;;;;;;;26.58;14.85;;;9.70;72.20;;;;;;2546429;54;22292;-65
2024/03/07 09:13:00;;;;;;;25.23;15.18;;;9.60;72.10;;;;;;2536012;54;21310;-65
2024/03/07 09:15:26;;;;;;;23.67;14.00;;;9.60;72.10;;;;;;2306951;54;21323;-65
2024/03/07 09:17:53;;;;;;;27.62;15.48;;;9.60;72.10;;;;;;2545927;54;21007;-65
2024/03/07 09:20:20;;;;;;;24.15;14.70;;;9.60;72.20;;;;;;2546012;54;21928;-65
2024/03/07 09:22:48;;;;;;;24.35;15.05;;;9.60;72.20;;;;;;2308523;54;20998;-66
2024/03/07 09:25:14;;;;;;;29.48;15.73;;;9.60;72.30;;;;;;2546659;54;20935;-66
2024/03/07 09:27:44;;;;;;;26.62;15.50;;;9.60;72.30;;;;;;2307939;54;21275;-66
2024/03/07 09:30:14;;;;;;;30.48;16.17;;;9.60;72.50;;;;;;2329191;54;21004;-65
2024/03/07 09:32:43;;;;;;;25.15;14.15;;;9.60;72.60;;;;;;2309328;54;21003;-65
2024/03/07 09:35:13;;;;;;;23.40;13.75;;;9.60;72.80;;;;;;2333243;54;21438;-66
2024/03/07 09:37:41;;;;;;;21.95;12.65;;;9.60;72.90;;;;;;2578757;53;21487;-66
2024/03/07 09:40:09;;;;;;;25.02;13.50;;;9.60;73.00;;;;;;2334497;54;20961;-65
2024/03/07 09:42:45;;;;;;;25.45;14.10;;;9.60;73.20;;;;;;2317627;54;21049;-65
2024/03/07 09:45:16;;;;;;;23.12;12.77;;;9.60;73.20;;;;;;2327412;54;21371;-66
2024/03/07 09:47:46;;;;;;;22.80;13.25;;;9.70;73.30;;;;;;2335180;54;21774;-65
2024/03/07 09:50:21;;;;;;;27.65;15.15;;;9.70;73.40;;;;;;2334586;54;21276;-66
2024/03/07 09:52:51;;;;;;;26.15;14.38;;;9.70;73.30;;;;;;2334645;54;20965;-66
2024/03/07 09:55:19;;;;;;;25.52;14.02;;;9.80;73.50;;;;;;2322499;54;21050;-65
2024/03/07 09:57:47;;;;;;;27.08;15.55;;;9.80;73.50;;;;;;2562547;53;21391;-66
2024/03/07 10:00:22;;;;;;;22.77;13.73;;;9.80;73.50;;;;;;2333929;54;21008;-65
2024/03/07 10:02:55;;;;;;;28.00;15.50;;;9.90;73.60;;;;;;2334423;54;20977;-66
2024/03/07 10:05:22;;;;;;;25.55;13.95;;;9.90;73.60;;;;;;2334527;54;20964;-66
2024/03/07 10:07:48;;;;;;;23.58;12.95;;;9.90;73.50;;;;;;2334833;54;21024;-65
2024/03/07 10:10:14;;;;;;;24.52;13.80;;;9.90;73.60;;;;;;2334649;54;20946;-65
2024/03/07 10:12:42;;;;;;;23.70;13.40;;;10.00;72.60;;;;;;2332128;54;20994;-66
2024/03/07 10:15:12;;;;;;;23.92;14.30;;;10.00;72.60;;;;;;2334100;54;20937;-65
2024/03/07 10:17:42;;;;;;;25.73;15.05;;;10.10;72.70;;;;;;2333840;54;21652;-66
2024/03/07 10:20:13;;;;;;;21.87;12.95;;;10.10;72.60;;;;;;2334587;54;20956;-65
2024/03/07 10:22:41;;;;;;;23.87;12.73;;;10.10;72.50;;;;;;2334668;54;20985;-65
2024/03/07 10:25:07;;;;;;;24.20;13.43;;;10.20;72.70;;;;;;2334315;54;21080;-65
2024/03/07 10:27:36;;;;;;;22.35;12.40;;;10.20;72.80;;;;;;2334249;54;20953;-65
2024/03/07 10:30:07;;;;;;;22.58;13.10;;;10.20;72.80;;;;;;2578549;53;21522;-66
2024/03/07 10:32:33;;;;;;;23.05;13.35;;;10.30;73.10;;;;;;2334253;54;21037;-66
2024/03/07 10:35:00;;;;;;;22.90;13.88;;;10.30;73.00;;;;;;2334590;54;20953;-66
2024/03/07 10:37:29;;;;;;;24.63;14.27;;;10.40;73.20;;;;;;2333893;54;20961;-66
2024/03/07 10:39:55;;;;;;;24.87;14.38;;;10.40;73.20;;;;;;2334247;54;20965;-65
2024/03/07 10:42:24;;;;;;;29.02;14.75;;;10.50;73.20;;;;;;2577729;53;21895;-66
2024/03/07 10:44:51;;;;;;;24.30;14.87;;;10.50;73.20;;;;;;2300745;54;21459;-66
2024/03/07 10:47:20;;;;;;;27.45;15.93;;;10.60;73.30;;;;;;2327565;54;20967;-66
2024/03/07 10:53:33;;;;;;;27.75;14.80;;;10.60;73.20;;;;;;2332697;54;20957;-65
2024/03/07 10:56:24;;;;;;;20.10;11.05;;;10.70;72.40;;;;;;2333920;54;20961;-66
2024/03/07 11:05:43;;;;;;;24.92;14.32;;;10.80;72.80;;;;;;2333857;54;21706;-65
2024/03/07 11:08:12;;;;;;;16.60;9.63;;;11.00;72.40;;;;;;2307308;54;20996;-66
2024/03/07 11:10:39;;;;;;;20.70;11.63;;;11.00;73.10;;;;;;2334241;54;21124;-65
2024/03/07 11:13:11;;;;;;;24.10;12.70;;;11.00;73.10;;;;;;2333833;54;21022;-66
2024/03/07 11:15:43;;;;;;;19.95;12.02;;;11.00;73.20;;;;;;2333373;54;20964;-66
2024/03/07 11:18:12;;;;;;;22.30;12.80;;;11.00;73.40;;;;;;2334088;54;21003;-65
2024/03/07 11:20:39;;;;;;;22.65;12.80;;;11.10;73.60;;;;;;2334181;54;21260;-66
2024/03/07 11:23:26;;;;;;;26.50;16.02;;;11.20;73.60;;;;;;2334273;54;21253;-66
2024/03/07 11:26:10;;;;;;;24.67;14.13;;;11.20;73.00;;;;;;2334769;54;20976;-66
2024/03/07 11:28:39;;;;;;;26.48;14.38;;;11.20;73.50;;;;;;2334640;54;20941;-65
2024/03/07 11:31:25;;;;;;;23.55;13.77;;;11.30;73.80;;;;;;2334228;54;21308;-65
2024/03/07 11:34:18;;;;;;;28.73;16.30;;;11.40;73.50;;;;;;2324471;54;20996;-66
2024/03/07 11:36:45;;;;;;;24.00;13.93;;;11.40;73.50;;;;;;2334564;54;21047;-66
2024/03/07 11:39:43;;;;;;;23.20;13.95;;;11.50;74.00;;;;;;2574557;53;20933;-66
2024/03/07 11:42:19;;;;;;;23.55;13.27;;;11.50;73.40;;;;;;2334437;54;20961;-66
2024/03/07 11:44:46;;;;;;;20.92;12.93;;;11.70;74.00;;;;;;2334208;54;20965;-66
2024/03/07 11:47:16;;;;;;;22.05;12.35;;;11.70;73.90;;;;;;2578913;53;21327;-65
2024/03/07 11:49:43;;;;;;;23.95;13.50;;;11.70;73.90;;;;;;2334345;54;21486;-65
2024/03/07 11:52:12;;;;;;;22.00;13.80;;;11.80;74.10;;;;;;2334576;54;20977;-66
2024/03/07 11:54:45;;;;;;;20.83;12.40;;;11.80;74.10;;;;;;2334251;54;21267;-65
2024/03/07 11:57:32;;;;;;;22.13;14.27;;;11.90;74.10;;;;;;2334298;54;20940;-66
2024/03/07 12:00:00;;;;;;;22.23;13.52;;;12.00;73.80;;;;;;2578874;53;20996;-66
2024/03/07 12:02:27;;;;;;;20.40;13.23;;;12.00;73.90;;;;;;2578939;53;20999;-66
2024/03/07 12:04:54;;;;;;;22.00;14.07;;;12.10;73.90;;;;;;2579507;53;20952;-65
2024/03/07 12:07:23;;;;;;;21.75;12.57;;;12.20;74.00;;;;;;2334089;54;21248;-66
2024/03/07 12:09:55;;;;;;;19.00;12.00;;;12.20;74.00;;;;;;2578462;53;21795;-65
2024/03/07 12:12:22;;;;;;;;;;;12.30;74.10;;;;;;2338003;54;21036;-66
2024/03/07 12:14:51;;;;;;;18.58;10.32;;;12.40;72.90;;;;;;2334683;54;20181;-65
2024/03/07 12:17:20;;;;;;;17.58;10.55;;;12.50;74.20;;;;;;2579079;53;20945;-67
2024/03/07 12:19:47;;;;;;;18.02;9.38;;;12.50;74.00;;;;;;2333952;54;20921;-67
2024/03/07 12:22:13;;;;;;;18.98;10.93;;;12.50;73.90;;;;;;2578272;53;20957;-66
2024/03/07 12:24:42;;;;;;;21.17;12.98;;;12.60;73.90;;;;;;2326723;54;20979;-66
2024/03/07 12:27:12;;;;;;;32.53;21.77;;;12.70;73.90;;;;;;2555842;53;21032;-66
2024/03/07 12:29:40;;;;;;;27.85;17.37;;;12.80;74.30;;;;;;2579170;53;20977;-66
2024/03/07 12:32:10;;;;;;;22.73;14.80;;;12.80;73.60;;;;;;2334558;54;21104;-67
2024/03/07 12:34:40;;;;;;;20.55;13.02;;;12.80;73.50;;;;;;2333644;54;20945;-67
2024/03/07 12:37:07;;;;;;;21.33;13.32;;;12.90;73.40;;;;;;2334070;54;20953;-66
2024/03/07 12:39:46;;;;;;;21.37;13.07;;;12.90;73.10;;;;;;2322357;54;21042;-66
2024/03/07 12:42:16;;;;;;;19.45;11.95;;;12.90;72.90;;;;;;2566079;53;20953;-66
2024/03/07 12:44:45;;;;;;;18.48;10.90;;;13.00;72.70;;;;;;2318651;54;21054;-66
2024/03/07 12:47:15;;;;;;;16.48;10.63;;;13.00;72.60;;;;;;2323331;54;21707;-66
2024/03/07 12:49:44;;;;;;;17.20;10.45;;;13.10;72.90;;;;;;2333877;54;21009;-67
2024/03/07 12:52:15;;;;;;;16.58;10.13;;;13.10;72.80;;;;;;2579046;53;21008;-66
2024/03/07 12:54:41;;;;;;;16.12;9.93;;;13.10;72.80;;;;;;2333611;54;21174;-65